Terminal Aerodrome Forecast
Issued by NWS

Home | Current Version | Previous Version | Text Only | Print | Product List | Glossary On
Versions: 1 2 3 4 5 6 7 8 9 10 11 12 13 14
000
FTUS42 KMHX 261100
TAFPGV
TAF
KPGV 261127Z 2612/2712 VRB04KT P6SM BKN100 OVC250
     FM262300 31005KT P6SM -RA OVC035
     FM270200 32010G18KT 6SM -RA BR SCT007 OVC020
     FM271000 33012G20KT 5SM -SN BKN007 OVC015
      AMD LTD TO CLD VIS AND WIND=

USA.gov is the U.S. government's official web portal to all federal, state and local government web resources and services.